Latest Weather Observations for Kingfish B

IDV60801

Issued at 2:35 pm EDT Sunday 26 October 2014 (issued every 30 minutes, with the page automatically refreshed every 10 minutes)

About weather observations | Map of weather stations | Latest weather observations for VIC | Other Formats
Station Details ID: 400139 Name: KINGFISH B (PLATFORM) Lat: -38.60 Lon: 148.19 Height: 31.4 m
Data from the previous 72 hours. | See also: Recent months for locations in Victoria
Date/Time
EDT
Temp
°C
App
Temp
°C
Dew
Point
Rel
Hum
%
Delta-T
°C
Wind Press
QNH
hPa
Press
MSL
hPa
Rain
since 9 am
mm
Dir
 
Spd
km/h
Gust
km/h
Spd
kts
Gust
kts
26/02:30pm 15.2 14.3 11.2 77 2.1 SSW 7 9 4 5 1012.5 - -
26/02:20pm 15.9 14.9 11.1 73 2.6 SSW 7 9 4 5 1012.6 - -
26/02:10pm 17.1 15.8 11.4 69 3.1 SW 9 11 5 6 1012.9 - -
26/02:00pm 17.9 16.5 12.1 69 3.2 SW 11 15 6 8 1013.0 - -
26/01:50pm 17.2 15.8 12.2 72 2.8 SW 11 13 6 7 1013.0 - -
26/01:40pm 16.4 14.9 12.0 75 2.4 SSW 11 13 6 7 1013.3 - -
26/01:30pm 16.0 14.4 11.7 75 2.3 SSW 11 13 6 7 1013.3 - -
26/01:20pm 15.7 14.5 11.6 76 2.2 SSW 9 15 5 8 1013.1 - -
26/01:10pm 15.8 14.2 11.5 75 2.3 SSW 11 15 6 8 1013.3 - -
26/01:00pm 16.1 14.5 11.7 75 2.4 SSW 11 15 6 8 1013.5 - -
26/12:50pm 15.8 14.6 11.6 76 2.3 SSW 9 11 5 6 1013.4 - -
26/12:40pm 15.3 14.1 11.5 78 2.0 SSW 9 13 5 7 1013.2 - -
26/12:30pm 14.9 13.2 11.3 79 1.9 S 11 17 6 9 1013.4 - -
26/12:20pm 15.0 13.3 11.3 78 2.0 S 11 15 6 8 1013.3 - -
26/12:00pm 14.7 12.6 11.3 80 1.8 S 13 17 7 9 1013.4 - -
26/11:50am 14.7 12.7 11.4 80 1.8 S 13 17 7 9 1013.4 - -
26/11:40am 14.8 12.4 11.4 80 1.8 S 15 17 8 9 1013.6 - -
26/11:30am 15.1 13.1 11.6 79 1.9 SSW 13 15 7 8 1013.5 - -
26/11:20am 15.2 13.6 11.6 79 1.9 SSW 11 15 6 8 1013.5 - -
26/11:10am 15.3 13.7 11.4 77 2.1 SSW 11 13 6 7 1013.4 - -
26/11:00am 15.6 13.9 11.2 75 2.4 SSW 11 13 6 7 1013.3 - -
26/10:50am 16.0 15.1 11.5 74 2.4 SW 7 11 4 6 1013.3 - -
26/10:40am 16.2 15.3 11.5 73 2.5 SW 7 11 4 6 1013.2 - -
26/10:30am 16.0 14.8 11.6 75 2.4 SW 9 11 5 6 1013.2 - -
26/10:20am 15.7 14.8 11.4 75 2.3 SW 7 11 4 6 1013.1 - -
26/10:10am 15.6 14.3 11.4 76 2.3 SW 9 9 5 5 1013.2 - -
26/10:00am 15.3 14.4 11.2 76 2.2 SSW 7 11 4 6 1013.1 - -
26/09:50am 15.2 14.2 11.1 76 2.2 SSW 7 9 4 5 1013.0 - -
26/09:40am 15.2 14.4 10.9 75 2.3 SSW 6 9 3 5 1012.9 - -
26/09:30am 15.1 14.0 10.8 75 2.3 SSW 7 9 4 5 1013.0 - -
26/09:20am 15.1 14.2 11.2 77 2.1 SSW 7 9 4 5 1012.9 - -
26/09:10am 15.1 14.4 11.4 78 2.0 SW 6 7 3 4 1012.9 - -
26/09:00am 15.1 14.5 11.6 79 1.9 SW 6 7 3 4 1012.9 - -
26/08:50am 14.9 14.3 11.6 80 1.8 SW 6 7 3 4 1012.9 - -
26/08:40am 14.8 14.5 11.6 81 1.7 SSW 4 6 2 3 1012.8 - -
26/08:30am 14.8 14.5 11.6 81 1.7 SSW 4 6 2 3 1012.8 - -
26/08:20am 14.8 14.5 11.5 80 1.8 SW 4 6 2 3 1012.8 - -
26/08:10am 14.9 14.6 11.6 80 1.8 SSW 4 7 2 4 1012.7 - -
26/08:00am 14.8 14.5 11.6 81 1.7 SSW 4 6 2 3 1012.8 - -
26/07:50am 14.8 14.5 11.5 80 1.8 SSW 4 6 2 3 1012.7 - -
26/07:40am 14.8 14.6 11.7 82 1.7 SSW 4 6 2 3 1012.6 - -
26/07:30am 14.5 14.6 11.5 82 1.6 SSW 2 4 1 2 1012.4 - -
26/07:20am 14.4 14.5 11.4 82 1.6 SSW 2 4 1 2 1012.4 - -
26/07:10am 14.3 14.4 11.4 83 1.5 S 2 4 1 2 1012.3 - -
26/07:00am 14.3 14.4 11.4 83 1.5 S 2 4 1 2 1012.3 - -
26/06:50am 14.4 14.5 11.4 82 1.6 S 2 6 1 3 1012.4 - -
26/06:30am 14.4 14.4 11.3 81 1.7 S 2 4 1 2 1012.4 - -
26/06:20am 14.5 14.5 11.3 81 1.7 S 2 4 1 2 1012.5 - -
26/06:10am 14.6 14.6 11.3 80 1.8 SSW 2 4 1 2 1012.4 - -
26/06:00am 14.6 14.6 11.3 80 1.8 SSW 2 4 1 2 1012.5 - -
26/05:50am 14.5 14.6 11.4 82 1.7 SSW 2 4 1 2 1012.4 - -
26/05:40am 14.5 14.9 11.4 82 1.7 S 0 2 0 1 1012.3 - -
26/05:30am 14.5 14.9 11.4 82 1.7 S 0 4 0 2 1012.5 - -
26/05:20am 14.6 14.7 11.5 82 1.7 SSW 2 4 1 2 1012.6 - -
26/05:10am 14.7 14.8 11.5 81 1.7 SSW 2 4 1 2 1012.7 - -
26/05:00am 14.6 14.7 11.5 82 1.7 SSW 2 4 1 2 1012.6 - -
26/04:50am 14.6 15.0 11.4 81 1.7 SSW 0 2 0 1 1012.7 - -
26/04:40am 14.6 15.0 11.4 81 1.7 SSW 0 0 0 0 1012.6 - -
26/04:30am 14.7 15.1 11.3 80 1.8 NE 0 0 0 0 1012.7 - -
26/04:10am 14.9 15.4 11.5 80 1.8 NE 0 0 0 0 1012.7 - -
26/04:00am 14.7 15.1 11.4 80 1.8 NE 0 0 0 0 1012.8 - -
26/03:50am 14.7 15.1 11.3 80 1.8 NE 0 0 0 0 1013.1 - -
26/03:40am 14.9 15.4 11.5 80 1.8 NE 0 0 0 0 1013.3 - -
26/03:30am 14.7 15.2 11.5 81 1.7 NE 0 0 0 0 1013.3 - -
26/03:20am 14.7 15.2 11.5 81 1.7 NE 0 0 0 0 1013.5 - -
26/03:10am 14.6 15.0 11.4 81 1.7 NE 0 0 0 0 1013.7 - -
26/03:00am 14.7 15.1 11.4 80 1.8 NE 0 0 0 0 1013.9 - -
26/01:50am 14.8 15.3 11.7 82 1.7 NE 0 0 0 0 1014.0 - -
26/01:40am 14.9 15.5 11.8 82 1.7 NE 0 0 0 0 1014.2 - -
26/01:30am 15.0 15.7 12.2 83 1.5 NE 0 0 0 0 1014.2 - -
26/01:20am 14.6 15.2 12.0 84 1.4 NE 0 0 0 0 1014.3 - -
26/01:10am 14.3 14.8 11.7 84 1.4 NE 0 0 0 0 1014.4 - -
26/01:00am 14.3 14.9 11.8 85 1.3 NE 0 0 0 0 1014.7 - -
26/12:50am 14.2 14.7 11.6 84 1.4 NE 0 0 0 0 1015.0 - -
26/12:40am 14.1 14.6 11.5 84 1.4 NE 0 0 0 0 1015.2 - -
26/12:30am 14.1 14.6 11.5 84 1.4 NE 0 0 0 0 1015.2 - -
26/12:20am 14.2 14.7 11.5 84 1.4 NE 0 0 0 0 1015.3 - -
26/12:10am 14.3 14.8 11.5 83 1.5 ENE 0 0 0 0 1015.5 - -
 
Date/Time
EDT
Temp
°C
App
Temp
°C
Dew
Point
Rel
Hum
%
Delta-T
°C
Wind Press
QNH
hPa
Press
MSL
hPa
Rain
since 9 am
mm
Dir
 
Spd
km/h
Gust
km/h
Spd
kts
Gust
kts
25/11:50pm 14.4 14.9 11.5 83 1.6 E 0 2 0 1 1015.5 - -
25/11:40pm 14.4 14.8 11.4 82 1.6 E 0 2 0 1 1015.7 - -
25/11:30pm 14.4 14.8 11.4 82 1.6 E 0 2 0 1 1015.8 - -
25/11:20pm 14.4 14.8 11.4 82 1.6 E 0 2 0 1 1015.9 - -
25/11:10pm 14.5 14.9 11.4 82 1.7 SE 0 0 0 0 1016.0 - -
25/11:00pm 14.5 14.9 11.4 82 1.7 SSE 0 4 0 2 1016.1 - -
25/10:50pm 14.6 15.0 11.4 81 1.7 S 0 2 0 1 1016.2 - -
25/10:40pm 14.6 14.7 11.4 81 1.7 S 2 4 1 2 1016.2 - -
25/10:30pm 14.6 15.0 11.4 81 1.7 S 0 4 0 2 1016.3 - -
25/10:20pm 14.5 14.9 11.3 81 1.7 ESE 0 2 0 1 1016.3 - -
25/10:10pm 14.5 14.9 11.2 80 1.8 E 0 4 0 2 1016.2 - -
25/10:00pm 14.5 14.9 11.2 80 1.8 E 0 4 0 2 1016.3 - -
25/09:50pm 14.5 14.9 11.2 80 1.8 E 0 2 0 1 1016.3 - -
25/09:40pm 14.6 15.0 11.1 79 1.9 ESE 0 2 0 1 1016.3 - -
25/09:30pm 14.6 15.0 11.1 79 1.9 SE 0 2 0 1 1016.4 - -
25/09:20pm 14.6 15.0 11.1 79 1.9 SSE 0 4 0 2 1016.4 - -
25/09:10pm 14.7 15.1 11.1 79 1.9 ESE 0 6 0 3 1016.4 - -
25/09:00pm 14.7 14.7 11.1 79 1.9 SE 2 11 1 6 1016.5 - -
25/08:50pm 14.7 14.3 11.2 79 1.9 SE 4 11 2 6 1016.4 - -
25/08:40pm 14.7 13.9 11.1 79 1.9 ESE 6 13 3 7 1016.2 - -
25/08:30pm 14.7 13.7 11.1 79 1.9 ESE 7 13 4 7 1016.1 - -
25/08:20pm 14.7 13.4 11.2 79 1.9 ESE 9 15 5 8 1016.1 - -
25/08:10pm 14.7 14.0 11.4 80 1.8 ESE 6 13 3 7 1016.1 - -
25/08:00pm 14.7 13.8 11.5 81 1.7 ESE 7 15 4 8 1016.0 - -
25/07:50pm 14.6 13.7 11.5 82 1.7 ESE 7 13 4 7 1016.0 - -
25/07:40pm 14.7 14.0 11.5 81 1.7 ESE 6 13 3 7 1015.9 - -
25/07:30pm 14.7 14.4 11.4 80 1.8 E 4 11 2 6 1015.9 - -
25/07:20pm 14.8 14.5 11.3 79 1.9 ESE 4 13 2 7 1015.8 - -
25/07:10pm 14.8 14.0 11.2 79 1.9 SE 6 15 3 8 1015.8 - -
25/07:00pm 14.8 14.0 11.1 78 2.0 SE 6 11 3 6 1015.8 - -
25/06:50pm 14.9 14.5 11.0 77 2.1 SSE 4 9 2 5 1015.7 - -
25/06:40pm 14.8 14.3 10.9 77 2.1 SSE 4 11 2 6 1015.6 - -
25/06:30pm 14.9 14.1 10.9 77 2.1 SSE 6 7 3 4 1015.5 - -
25/06:20pm 14.9 13.9 11.0 77 2.1 SSE 7 11 4 6 1015.5 - -
25/06:00pm 14.9 13.5 11.0 77 2.1 SSE 9 13 5 7 1015.3 - -
25/05:50pm 14.9 13.5 11.0 77 2.1 SSE 9 11 5 6 1015.2 - -
25/05:40pm 14.9 13.9 11.0 77 2.1 SSE 7 9 4 5 1015.2 - -
25/05:30pm 15.0 13.6 11.0 77 2.1 SSE 9 13 5 7 1015.2 - -
25/05:20pm 14.9 13.9 11.0 77 2.1 SSE 7 11 4 6 1015.1 - -
25/05:10pm 14.9 13.1 11.0 77 2.1 SSE 11 15 6 8 1015.2 - -
25/05:00pm 14.9 13.1 10.8 76 2.2 S 11 15 6 8 1015.3 - -
25/04:50pm 15.0 13.2 10.8 76 2.2 S 11 13 6 7 1015.3 - -
25/04:40pm 15.0 13.1 10.6 75 2.3 S 11 13 6 7 1015.1 - -
25/04:30pm 15.1 13.6 10.6 74 2.4 S 9 13 5 7 1015.1 - -
25/04:20pm 15.0 13.1 10.4 74 2.4 S 11 15 6 8 1015.2 - -
25/04:10pm 15.0 13.0 10.3 73 2.5 S 11 13 6 7 1015.3 - -
25/04:00pm 15.1 13.1 10.2 72 2.6 S 11 13 6 7 1015.3 - -
25/03:50pm 15.2 13.6 10.1 71 2.7 S 9 13 5 7 1015.4 - -
25/03:40pm 15.4 14.1 10.0 70 2.8 S 7 11 4 6 1015.5 - -
25/03:30pm 15.7 15.0 10.0 69 3.0 SSW 4 9 2 5 1015.4 - -
25/03:20pm 16.5 15.9 10.5 67 3.2 SW 4 6 2 3 1015.6 - -
25/03:10pm 16.5 15.6 10.6 68 3.1 SW 6 7 3 4 1015.6 - -
25/03:00pm 16.5 15.6 10.5 67 3.2 SW 6 9 3 5 1015.7 - -
25/02:50pm 16.4 15.5 10.5 68 3.1 SW 6 9 3 5 1015.7 - -
25/02:40pm 16.2 15.0 10.4 68 3.1 SW 7 11 4 6 1015.7 - -
25/02:30pm 15.9 14.6 10.1 68 3.0 SSW 7 9 4 5 1015.6 - -
25/02:20pm 16.1 15.0 10.1 67 3.2 SSW 6 9 3 5 1015.7 - -
25/02:10pm 16.1 15.1 10.2 68 3.1 SSW 6 9 3 5 1015.7 - -
25/02:00pm 16.6 15.6 10.3 66 3.3 SSW 6 11 3 6 1015.8 - -
25/01:50pm 17.1 16.3 11.0 67 3.3 SW 6 7 3 4 1015.9 - -
25/01:40pm 16.9 15.8 10.8 67 3.3 SW 7 9 4 5 1016.0 - -
25/01:30pm 16.8 15.8 10.9 68 3.2 SW 7 11 4 6 1016.0 - -
25/01:20pm 16.4 14.9 10.7 69 3.0 SW 9 13 5 7 1016.0 - -
25/01:10pm 16.5 15.1 11.0 70 3.0 SW 9 13 5 7 1016.1 - -
25/01:00pm 15.8 13.9 10.6 71 2.8 SSW 11 15 6 8 1016.2 - -
25/12:40pm 16.3 13.6 10.3 67 3.2 SSW 15 19 8 10 1016.5 - -
25/12:30pm 17.7 15.4 10.6 63 3.8 SW 13 17 7 9 1016.5 - -
25/12:20pm 17.6 15.4 10.7 64 3.7 SW 13 17 7 9 1016.6 - -
25/12:10pm 17.2 14.9 10.6 65 3.5 SW 13 15 7 8 1016.8 - -
25/12:00pm 17.1 14.8 10.6 65 3.5 WSW 13 17 7 9 1017.0 - -
25/11:50am 16.9 14.7 10.8 67 3.3 SW 13 17 7 9 1017.1 - -
25/11:40am 16.6 14.4 10.7 68 3.1 SW 13 19 7 10 1017.2 - -
25/11:30am 16.7 14.1 10.8 68 3.2 SW 15 19 8 10 1017.1 - -
25/11:20am 16.7 14.5 10.7 67 3.2 SW 13 19 7 10 1017.3 - -
25/11:10am 16.7 14.5 10.7 67 3.2 SW 13 17 7 9 1017.3 - -
25/11:00am 16.6 14.0 10.7 68 3.1 SW 15 19 8 10 1017.3 - -
25/10:50am 16.4 13.0 10.6 68 3.1 SW 19 26 10 14 1017.3 - -
25/10:40am 16.4 12.8 10.6 68 3.1 WSW 20 24 11 13 1017.2 - -
25/10:30am 16.6 13.2 10.5 67 3.2 WSW 19 22 10 12 1017.2 - -
25/10:20am 16.5 13.1 10.5 67 3.2 SW 19 26 10 14 1017.2 - -
25/10:10am 16.1 12.7 10.5 69 3.0 SW 19 24 10 13 1017.0 - -
25/10:00am 15.8 11.8 10.5 71 2.8 WSW 22 26 12 14 1017.0 - -
25/09:50am 15.8 12.2 10.7 71 2.7 WSW 20 26 11 14 1017.0 - -
25/09:40am 15.5 11.2 10.7 73 2.5 WSW 24 30 13 16 1016.7 - -
25/09:30am 15.4 11.1 10.6 73 2.5 WSW 24 28 13 15 1016.8 - -
25/09:20am 15.3 10.9 10.5 73 2.5 WSW 24 28 13 15 1016.8 - -
25/09:10am 15.3 11.3 10.5 73 2.5 WSW 22 28 12 15 1016.7 - -
25/09:00am 15.3 10.9 10.5 73 2.5 WSW 24 30 13 16 1016.7 - -
25/08:50am 15.3 11.4 10.7 74 2.4 WSW 22 28 12 15 1016.7 - -
25/08:40am 15.2 10.9 10.7 74 2.4 WSW 24 30 13 16 1016.4 - -
25/08:30am 15.2 11.3 10.8 75 2.3 WSW 22 30 12 16 1016.5 - -
25/08:20am 15.1 10.8 10.9 76 2.2 WSW 24 32 13 17 1016.3 - -
25/08:10am 15.1 10.5 11.0 76 2.2 WSW 26 32 14 17 1016.2 - -
25/08:00am 15.1 10.5 11.1 77 2.1 WSW 26 30 14 16 1016.2 - -
25/07:50am 15.1 10.9 11.0 76 2.2 WSW 24 30 13 16 1016.2 - -
25/07:40am 15.0 10.0 10.9 76 2.2 WSW 28 37 15 20 1016.0 - -
25/07:30am 15.0 9.9 10.7 75 2.3 WSW 28 32 15 17 1015.9 - -
25/07:20am 14.9 9.8 10.6 75 2.3 WSW 28 33 15 18 1015.8 - -
25/07:10am 14.9 9.8 10.7 76 2.2 WSW 28 35 15 19 1015.8 - -
25/07:00am 14.9 9.4 10.7 76 2.2 WSW 30 35 16 19 1015.6 - -
25/06:40am 14.9 9.9 10.8 76 2.2 SW 28 37 15 20 1015.6 - -
25/06:30am 14.8 9.4 10.8 77 2.1 SW 30 39 16 21 1015.3 - -
25/06:20am 14.8 9.4 11.0 78 2.0 SW 30 37 16 20 1015.2 - -
25/06:10am 14.8 9.5 11.1 78 2.0 SW 30 35 16 19 1015.3 - -
25/06:00am 14.9 10.3 11.2 78 2.0 SW 26 32 14 17 1015.1 - -
25/05:50am 14.9 9.5 11.0 77 2.1 WSW 30 35 16 19 1014.7 - -
25/05:40am 14.7 8.7 10.8 77 2.1 WSW 33 41 18 22 1014.4 - -
25/05:30am 14.6 8.3 11.0 79 1.9 SW 35 43 19 23 1014.4 - -
25/05:20am 14.6 8.4 11.3 80 1.8 SW 35 43 19 23 1014.3 - -
25/05:10am 14.7 8.1 11.5 81 1.7 SW 37 43 20 23 1014.1 - -
25/05:00am 14.7 8.1 11.5 81 1.7 SW 37 41 20 22 1013.9 - -
25/04:50am 14.9 8.0 11.7 81 1.7 SW 39 44 21 24 1014.0 - -
25/04:40am 14.9 9.2 11.7 81 1.7 SW 33 43 18 23 1014.2 - -
25/04:30am 14.9 9.4 11.8 82 1.7 SW 32 37 17 20 1014.4 - -
25/04:20am 14.9 8.8 11.9 82 1.6 SW 35 41 19 22 1014.3 - -
25/04:10am 14.9 9.4 12.0 83 1.6 SW 32 41 17 22 1014.1 - -
25/04:00am 14.8 8.4 12.1 84 1.5 SW 37 44 20 24 1013.9 - -
25/03:50am 14.7 8.4 12.2 85 1.4 SW 37 43 20 23 1013.8 - -
25/03:40am 14.8 8.5 12.4 85 1.3 SW 37 44 20 24 1013.7 - -
25/03:30am 14.9 8.3 12.5 85 1.3 SW 39 44 21 24 1013.6 - -
25/03:20am 15.0 9.2 12.7 86 1.3 SW 35 43 19 23 1013.6 - -
25/03:10am 15.0 9.6 12.8 87 1.2 SW 33 41 18 22 1013.5 - -
25/03:00am 15.0 9.6 12.8 87 1.2 SW 33 39 18 21 1013.5 - -
25/02:50am 15.1 10.0 13.0 87 1.2 SW 32 37 17 20 1013.3 - -
25/02:40am 15.1 10.3 13.0 87 1.2 SW 30 33 16 18 1013.3 - -
25/02:30am 15.2 10.5 13.1 87 1.2 SW 30 35 16 19 1013.3 - -
25/02:20am 15.2 10.9 13.2 88 1.1 SW 28 33 15 18 1013.4 - -
25/02:10am 15.3 11.4 13.3 88 1.1 SW 26 33 14 18 1013.4 - -
25/01:50am 15.4 11.9 13.3 87 1.2 SW 24 32 13 17 1013.4 - -
25/01:40am 15.4 11.8 13.2 87 1.2 SW 24 30 13 16 1013.3 - -
25/01:30am 15.3 12.5 13.2 87 1.2 SW 20 24 11 13 1013.2 - -
25/01:20am 15.4 12.3 13.3 87 1.2 SW 22 28 12 15 1013.3 - -
25/01:10am 15.5 13.0 13.5 88 1.1 SW 19 26 10 14 1013.4 - -
25/01:00am 15.5 13.4 13.5 88 1.1 SW 17 20 9 11 1013.4 - -
25/12:50am 15.6 14.3 13.6 88 1.1 WSW 13 19 7 10 1013.4 - -
25/12:40am 15.6 13.9 13.6 88 1.1 SW 15 20 8 11 1013.4 - -
25/12:30am 15.7 14.0 13.6 87 1.2 SW 15 20 8 11 1013.5 - -
25/12:20am 15.8 14.1 13.6 87 1.2 SW 15 19 8 10 1013.5 - -
25/12:10am 16.0 14.7 13.7 86 1.3 SW 13 17 7 9 1013.4 - -
25/12:00am 16.1 14.8 13.7 86 1.4 SW 13 17 7 9 1013.5 - -
 
Date/Time
EDT
Temp
°C
App
Temp
°C
Dew
Point
Rel
Hum
%
Delta-T
°C
Wind Press
QNH
hPa
Press
MSL
hPa
Rain
since 9 am
mm
Dir
 
Spd
km/h
Gust
km/h
Spd
kts
Gust
kts
24/11:50pm 16.1 14.0 13.6 85 1.4 SW 17 24 9 13 1013.5 - -
24/11:40pm 16.3 13.2 13.5 83 1.6 SW 22 26 12 14 1013.4 - -
24/11:30pm 16.5 12.7 13.5 82 1.7 SW 26 33 14 18 1013.3 - -
24/11:20pm 17.0 12.8 13.6 80 1.9 SW 28 33 15 18 1013.4 - -
24/11:10pm 17.3 13.5 13.5 78 2.1 SW 26 33 14 18 1013.4 - -
24/11:00pm 17.5 14.0 13.5 77 2.3 SW 24 32 13 17 1013.2 - -
24/10:50pm 17.8 15.1 13.5 76 2.4 SW 20 28 11 15 1013.1 - -
24/10:40pm 18.0 15.3 13.4 74 2.6 SW 20 30 11 16 1013.0 - -
24/10:30pm 18.2 15.8 13.7 75 2.6 SW 19 26 10 14 1013.0 - -
24/10:20pm 18.2 16.3 14.2 77 2.3 SW 17 20 9 11 1013.0 - -
24/10:10pm 18.3 17.3 14.6 79 2.1 SW 13 20 7 11 1012.8 - -
24/10:00pm 18.4 18.2 14.8 79 2.1 SW 9 13 5 7 1012.7 - -
24/09:50pm 18.4 17.2 15.0 80 2.0 SW 15 24 8 13 1012.7 - -
24/09:40pm 18.3 16.2 15.3 83 1.8 SW 20 24 11 13 1012.5 - -
24/09:30pm 18.3 16.5 15.4 83 1.7 SW 19 20 10 11 1012.2 - -
24/09:20pm 18.3 16.9 15.5 84 1.6 SW 17 20 9 11 1012.1 - -
24/09:10pm 18.4 17.4 15.6 84 1.7 SW 15 19 8 10 1012.0 - -
24/09:00pm 18.5 18.7 15.7 84 1.7 SW 9 11 5 6 1011.9 - -
24/08:50pm 18.4 19.1 15.6 84 1.7 SW 6 7 3 4 1011.8 - -
24/08:40pm 18.2 19.6 15.4 84 1.6 WSW 2 4 1 2 1011.7 - -
24/08:30pm 17.9 19.2 15.1 84 1.6 WSW 2 4 1 2 1011.4 - -
24/08:20pm 18.0 19.7 15.3 84 1.6 SW 0 0 0 0 1011.3 - -
24/08:10pm 17.9 19.6 15.2 84 1.6 NE 0 0 0 0 1011.1 - -
24/08:00pm 17.9 19.6 15.1 84 1.6 NE 0 0 0 0 1010.9 - -
24/07:50pm 18.1 19.8 15.2 83 1.7 NE 0 0 0 0 1010.7 - -
24/07:40pm 18.3 20.0 15.2 82 1.8 NE 0 0 0 0 1010.7 - -
24/07:30pm 18.4 20.1 15.2 81 1.9 NE 0 0 0 0 1010.5 - -
24/07:20pm 18.6 20.4 15.4 81 1.9 NE 0 0 0 0 1010.4 - -
24/07:10pm 18.5 20.3 15.4 82 1.8 NE 0 0 0 0 1010.3 - -
24/07:00pm 18.6 20.4 15.4 81 1.9 NE 0 0 0 0 1010.2 - -
24/06:50pm 18.8 20.6 15.4 80 2.0 NW 0 0 0 0 1010.1 - -
24/06:40pm 18.8 20.6 15.4 80 2.0 NNW 0 2 0 1 1009.9 - -
24/06:30pm 19.0 20.4 15.5 80 2.1 NNE 2 7 1 4 1009.9 - -
24/06:10pm 19.2 20.7 15.6 79 2.1 N 2 6 1 3 1009.9 - -
24/06:00pm 19.2 20.7 15.6 79 2.1 NW 2 4 1 2 1010.0 - -
24/05:50pm 19.1 20.9 15.6 80 2.1 WNW 0 0 0 0 1010.0 - -
24/05:40pm 19.0 20.8 15.5 80 2.1 WNW 0 6 0 3 1009.9 - -
24/05:30pm 19.2 21.0 15.6 79 2.1 WSW 0 0 0 0 1009.9 - -
24/05:10pm 19.2 21.1 15.7 80 2.1 NW 0 6 0 3 1009.7 - -
24/05:00pm 19.1 20.6 15.8 81 2.0 NNW 2 6 1 3 1009.6 - -
24/04:50pm 18.9 20.4 15.7 82 1.9 NW 2 4 1 2 1009.6 - -
24/04:40pm 19.0 20.9 15.8 82 1.9 NW 0 2 0 1 1009.7 - -
24/04:30pm 18.8 20.0 15.9 83 1.7 NNW 4 6 2 3 1009.7 - -
24/04:20pm 18.5 19.6 15.6 83 1.7 N 4 9 2 5 1009.5 - -
24/04:10pm 18.4 19.5 15.5 83 1.7 NNE 4 9 2 5 1009.5 - -
24/04:00pm 18.5 19.2 15.5 83 1.8 NNE 6 9 3 5 1009.6 - -
24/03:50pm 18.5 19.2 15.5 83 1.8 NNE 6 11 3 6 1009.7 - -
24/03:40pm 18.5 19.6 15.5 83 1.8 N 4 9 2 5 1009.8 - -
24/03:30pm 18.5 19.0 15.5 83 1.8 NNE 7 17 4 9 1009.8 - -
24/03:20pm 18.4 19.0 15.4 83 1.8 N 6 17 3 9 1009.8 - -
24/03:10pm 18.4 16.6 15.4 83 1.8 NE 19 22 10 12 1009.7 - -
24/03:00pm 18.3 16.3 15.5 84 1.6 NE 20 26 11 14 1009.7 - -
24/02:50pm 18.2 15.8 15.5 84 1.6 NE 22 28 12 15 1009.8 - -
24/02:40pm 18.2 15.8 15.5 84 1.6 NE 22 26 12 14 1009.9 - -
24/02:30pm 18.2 15.8 15.5 84 1.6 NE 22 26 12 14 1010.0 - -
24/02:20pm 18.2 15.5 15.5 84 1.6 NE 24 26 13 14 1010.0 - -
24/02:10pm 18.2 15.1 15.6 85 1.5 NE 26 30 14 16 1010.0 - -
24/02:00pm 18.2 15.1 15.6 85 1.5 NE 26 28 14 15 1010.1 - -
24/01:50pm 18.1 15.0 15.5 85 1.5 NE 26 30 14 16 1010.2 - -
24/01:40pm 18.0 14.8 15.4 85 1.5 NE 26 30 14 16 1010.2 - -
24/01:30pm 18.0 14.5 15.4 85 1.5 NE 28 32 15 17 1010.2 - -
24/01:20pm 18.0 14.4 15.3 84 1.6 NE 28 32 15 17 1010.2 - -
24/01:10pm 17.9 13.9 15.2 84 1.6 NE 30 33 16 18 1010.2 - -
24/01:00pm 18.1 13.7 15.2 83 1.7 NE 32 35 17 19 1010.2 - -
24/12:50pm 18.2 13.7 15.3 83 1.7 NE 33 37 18 20 1010.3 - -
24/12:40pm 18.1 13.6 15.3 84 1.6 NE 33 37 18 20 1010.4 - -
24/12:30pm 18.1 13.7 15.2 83 1.7 NE 32 37 17 20 1010.5 - -
24/12:20pm 18.1 13.8 15.3 84 1.6 NE 32 35 17 19 1010.7 - -
24/12:10pm 18.1 14.5 15.3 84 1.6 NE 28 32 15 17 1010.9 - -
24/12:00pm 18.2 15.0 15.4 84 1.6 NE 26 30 14 16 1011.1 - -
24/11:50am 18.2 15.1 15.6 85 1.5 NE 26 30 14 16 1011.3 - -
24/11:40am 18.1 15.0 15.5 85 1.5 NE 26 30 14 16 1011.5 - -
24/11:20am 18.0 13.8 15.6 86 1.4 NE 32 35 17 19 1011.7 - -
24/11:10am 18.0 13.8 15.6 86 1.4 NE 32 37 17 20 1011.9 - -
24/11:00am 18.0 13.6 15.7 86 1.4 NE 33 37 18 20 1011.9 - -
24/10:50am 17.9 13.1 15.7 87 1.3 NE 35 39 19 21 1012.0 - -
24/10:40am 17.9 12.8 15.7 87 1.3 NE 37 43 20 23 1012.1 - -
24/10:30am 17.9 12.4 15.8 87 1.2 NE 39 44 21 24 1012.1 - -
24/10:20am 17.9 12.4 15.8 87 1.2 NE 39 44 21 24 1012.3 - -
24/10:10am 17.9 12.1 15.9 88 1.2 NE 41 48 22 26 1012.4 - -
24/10:00am 17.9 12.1 16.0 89 1.1 NE 41 46 22 25 1012.6 - -
24/09:50am 17.9 11.7 16.0 89 1.1 NE 43 48 23 26 1012.7 - -
24/09:40am 17.9 11.6 16.2 90 1.0 NE 44 52 24 28 1012.6 - -
24/09:30am 17.8 11.5 16.2 90 1.0 NE 44 50 24 27 1012.8 - -
24/09:20am 17.8 11.2 16.3 91 0.9 NE 46 54 25 29 1012.8 - -
24/09:10am 17.7 11.5 16.3 91 0.8 NE 44 52 24 28 1013.0 - -
24/09:00am 17.6 11.0 16.3 92 0.8 NE 46 56 25 30 1013.1 - -
24/08:50am 17.5 10.1 16.3 93 0.7 NE 50 59 27 32 1013.0 - -
24/08:40am 17.3 9.5 16.2 93 0.7 NE 52 61 28 33 1013.1 - -
24/08:30am 17.2 10.2 16.2 94 0.6 NE 48 56 26 30 1013.3 - -
24/08:20am 17.1 9.7 16.2 94 0.5 NE 50 57 27 31 1013.4 - -
24/08:10am 17.1 9.7 16.2 94 0.5 NE 50 59 27 32 1013.6 - -
24/08:00am 17.0 10.3 16.2 95 0.5 NE 46 57 25 31 1013.8 - -
24/07:50am 17.0 10.7 16.2 95 0.5 NE 44 54 24 29 1014.0 - -
24/07:40am 17.0 10.9 16.2 95 0.5 ENE 43 52 23 28 1014.0 - -
24/07:30am 17.0 10.9 16.2 95 0.5 ENE 43 50 23 27 1014.0 - -
24/07:20am 16.9 11.9 16.2 96 0.4 ENE 37 52 20 28 1014.1 - -
24/07:10am 16.9 11.9 16.2 96 0.4 ENE 37 48 20 26 1014.3 - -
24/07:00am 16.8 11.8 16.2 96 0.4 ENE 37 48 20 26 1014.2 - -
24/06:50am 16.8 11.5 16.2 96 0.4 ENE 39 50 21 27 1014.3 - -
24/06:40am 16.8 11.5 16.2 96 0.4 ENE 39 50 21 27 1014.3 - -
24/06:20am 16.7 12.1 16.1 96 0.4 ENE 35 44 19 24 1014.5 - -
24/06:10am 16.7 12.5 16.1 96 0.4 ENE 33 41 18 22 1014.6 - -
24/06:00am 16.7 12.5 16.1 96 0.4 ENE 33 44 18 24 1014.6 - -
24/05:50am 16.7 12.5 16.1 96 0.4 ENE 33 43 18 23 1014.7 - -
24/05:40am 16.6 12.0 16.1 97 0.3 ENE 35 44 19 24 1014.7 - -
24/05:30am 16.6 12.0 16.0 96 0.4 ENE 35 44 19 24 1014.6 - -
24/05:20am 16.6 12.3 16.0 96 0.4 ENE 33 44 18 24 1014.7 - -
24/05:00am 16.6 12.3 16.0 96 0.4 ENE 33 44 18 24 1014.9 - -
24/04:50am 16.6 12.3 15.9 96 0.4 ENE 33 41 18 22 1015.1 - -
24/04:40am 16.6 11.9 15.9 96 0.4 ENE 35 46 19 25 1015.2 - -
24/04:30am 16.6 11.9 15.9 96 0.4 ENE 35 46 19 25 1015.3 - -
24/04:20am 16.6 12.5 16.0 96 0.4 ENE 32 43 17 23 1015.5 - -
24/04:10am 16.6 12.0 16.0 96 0.4 ENE 35 43 19 23 1015.7 - -
24/04:00am 16.6 12.3 15.9 96 0.4 ENE 33 44 18 24 1015.8 - -
24/03:50am 16.6 12.3 15.9 96 0.4 ENE 33 41 18 22 1015.9 - -
24/03:40am 16.5 12.3 15.8 96 0.4 ENE 32 41 17 22 1016.1 - -
24/03:30am 16.5 11.8 15.8 96 0.4 ENE 35 41 19 22 1016.2 - -
24/03:20am 16.5 11.4 15.8 96 0.4 ENE 37 44 20 24 1016.3 - -
24/03:10am 16.4 11.3 15.7 96 0.4 ENE 37 44 20 24 1016.5 - -
24/03:00am 16.4 11.3 15.7 96 0.4 ENE 37 41 20 22 1016.8 - -
24/02:50am 16.4 10.9 15.7 96 0.4 ENE 39 44 21 24 1016.9 - -
24/02:40am 16.4 10.8 15.6 95 0.5 E 39 44 21 24 1017.1 - -
24/02:30am 16.3 11.1 15.5 95 0.5 E 37 44 20 24 1017.3 - -
24/02:20am 16.3 11.1 15.5 95 0.5 E 37 44 20 24 1017.4 - -
24/02:10am 16.3 10.7 15.5 95 0.5 E 39 46 21 25 1017.5 - -
24/01:50am 16.2 10.9 15.3 94 0.5 E 37 43 20 23 1018.0 - -
24/01:40am 16.2 10.9 15.3 94 0.5 E 37 43 20 23 1018.2 - -
24/01:30am 16.1 10.4 15.3 95 0.5 E 39 44 21 24 1018.4 - -
24/01:20am 16.1 10.0 15.2 94 0.5 E 41 48 22 26 1018.4 - -
24/01:10am 16.1 10.0 15.2 94 0.5 E 41 48 22 26 1018.6 - -
24/01:00am 15.8 9.6 14.9 94 0.5 E 41 46 22 25 1018.7 - -
24/12:50am 15.8 9.6 14.9 94 0.5 E 41 46 22 25 1018.8 - -
24/12:40am 15.8 9.6 14.8 94 0.6 E 41 48 22 26 1019.0 - -
24/12:30am 15.8 9.6 14.8 94 0.6 E 41 46 22 25 1019.1 - -
24/12:20am 15.7 9.4 14.7 94 0.6 E 41 48 22 26 1019.2 - -
24/12:10am 15.7 9.8 14.7 94 0.6 E 39 48 21 26 1019.4 - -
24/12:00am 15.7 9.8 14.6 93 0.6 E 39 48 21 26 1019.5 - -
 
Date/Time
EDT
Temp
°C
App
Temp
°C
Dew
Point
Rel
Hum
%
Delta-T
°C
Wind Press
QNH
hPa
Press
MSL
hPa
Rain
since 9 am
mm
Dir
 
Spd
km/h
Gust
km/h
Spd
kts
Gust
kts
23/11:50pm 15.6 9.7 14.6 94 0.6 E 39 46 21 25 1019.5 - -
23/11:40pm 15.7 9.8 14.6 93 0.6 E 39 46 21 25 1019.4 - -
23/11:30pm 15.7 10.1 14.5 93 0.7 E 37 44 20 24 1019.5 - -
23/11:20pm 15.6 10.0 14.5 93 0.6 E 37 44 20 24 1019.5 - -
23/11:10pm 15.6 9.6 14.5 93 0.6 E 39 48 21 26 1019.6 - -
23/11:00pm 15.6 9.6 14.4 93 0.7 E 39 46 21 25 1019.7 - -
23/10:50pm 15.6 10.0 14.4 93 0.7 E 37 46 20 25 1019.8 - -
23/10:40pm 15.6 10.3 14.3 92 0.7 E 35 43 19 23 1019.9 - -
23/10:30pm 15.6 9.9 14.3 92 0.7 E 37 44 20 24 1020.0 - -
23/10:20pm 15.6 9.9 14.3 92 0.7 E 37 44 20 24 1020.1 - -
23/10:10pm 15.6 9.9 14.3 92 0.7 E 37 44 20 24 1020.2 - -
23/10:00pm 15.6 10.3 14.3 92 0.7 E 35 44 19 24 1020.4 - -
23/09:50pm 15.6 9.9 14.2 91 0.8 E 37 43 20 23 1020.4 - -
23/09:40pm 15.5 9.8 14.2 92 0.7 E 37 44 20 24 1020.5 - -
23/09:30pm 15.6 9.5 14.2 91 0.8 E 39 44 21 24 1020.5 - -
23/09:20pm 15.6 9.5 14.2 91 0.8 E 39 48 21 26 1020.6 - -
23/09:10pm 15.6 9.5 14.2 91 0.8 E 39 44 21 24 1020.7 - -
23/09:00pm 15.6 10.3 14.3 92 0.7 E 35 43 19 23 1020.8 - -
23/08:50pm 15.6 10.3 14.3 92 0.7 E 35 44 19 24 1020.7 - -
23/08:40pm 15.5 10.2 14.3 92 0.7 E 35 41 19 22 1020.7 - -
23/08:30pm 15.4 10.5 14.4 94 0.6 E 33 39 18 21 1020.6 - -
23/08:20pm 15.3 10.4 14.4 94 0.5 E 33 39 18 21 1020.6 - -
23/08:10pm 15.3 11.0 14.3 94 0.6 E 30 39 16 21 1020.5 - -
23/08:00pm 15.2 10.5 14.2 94 0.6 E 32 37 17 20 1020.4 - -
23/07:50pm 15.2 10.3 14.2 94 0.6 E 33 39 18 21 1020.4 - -
23/07:40pm 15.1 9.8 14.1 94 0.6 E 35 43 19 23 1020.3 - -
23/07:30pm 15.1 9.8 14.1 94 0.6 ESE 35 41 19 22 1020.4 - -
23/07:20pm 15.0 9.2 14.0 94 0.6 ESE 37 44 20 24 1020.4 - -
23/07:00pm 14.9 9.5 13.8 93 0.6 ESE 35 43 19 23 1020.4 - -
23/06:50pm 14.9 8.7 13.7 92 0.7 ESE 39 44 21 24 1020.3 - -
23/06:40pm 14.9 8.7 13.7 92 0.7 ESE 39 44 21 24 1020.2 - -
23/06:30pm 14.9 9.0 13.6 92 0.7 ESE 37 43 20 23 1020.2 - -
23/06:20pm 14.8 8.5 13.5 92 0.7 ESE 39 46 21 25 1020.1 - -
23/06:10pm 14.9 9.0 13.5 91 0.8 ESE 37 44 20 24 1020.1 - -
23/06:00pm 14.9 9.4 13.5 91 0.8 ESE 35 44 19 24 1020.2 - -
23/05:50pm 14.9 8.9 13.4 91 0.8 ESE 37 43 20 23 1020.1 - -
23/05:40pm 15.0 9.8 13.5 91 0.8 ESE 33 41 18 22 1020.2 - -
23/05:30pm 15.0 9.4 13.3 89 0.9 ESE 35 41 19 22 1020.2 - -
23/05:20pm 15.1 8.7 13.3 89 1.0 ESE 39 44 21 24 1020.0 - -
23/05:10pm 15.1 8.7 13.3 89 1.0 ESE 39 44 21 24 1019.9 - -
23/05:00pm 15.2 8.4 13.2 88 1.1 ESE 41 46 22 25 1019.9 - -
23/04:50pm 15.2 8.4 13.2 88 1.1 ESE 41 46 22 25 1019.8 - -
23/04:40pm 15.5 9.5 13.2 86 1.3 ESE 37 43 20 23 1019.7 - -
23/04:30pm 15.6 9.6 13.2 86 1.3 ESE 37 43 20 23 1019.7 - -
23/04:20pm 15.7 9.6 13.1 84 1.4 ESE 37 43 20 23 1019.9 - -
23/04:10pm 15.7 9.6 13.1 84 1.4 ESE 37 43 20 23 1020.1 - -
23/04:00pm 15.7 10.0 13.1 84 1.4 ESE 35 39 19 21 1020.3 - -
23/03:50pm 15.7 10.4 13.0 84 1.5 ESE 33 50 18 27 1020.4 - -
23/03:40pm 15.7 10.6 13.0 84 1.5 ESE 32 37 17 20 1020.4 - -
23/03:30pm 15.7 10.3 12.9 83 1.6 ESE 33 39 18 21 1020.5 - -
23/03:20pm 15.7 10.5 12.9 83 1.6 ESE 32 37 17 20 1020.5 - -
23/03:10pm 15.7 10.0 12.9 83 1.6 ESE 35 41 19 22 1020.6 - -
23/03:00pm 15.7 10.3 12.9 83 1.6 ESE 33 39 18 21 1020.6 - -
23/02:50pm 15.7 10.3 12.8 83 1.6 ESE 33 39 18 21 1020.6 - -

Other Formats:

Comma delimited format used in spreadsheet applications
http://www.bom.gov.au/fwo/IDV60801/IDV60801.55039.axf

JavaScript Object Notation format (JSON) in row-major order
http://www.bom.gov.au/fwo/IDV60801/IDV60801.55039.json